createdAt,value
2022-11-24T00:01:03.647Z,21.10
2022-11-24T00:03:30.685Z,19.63
2022-11-24T00:06:02.363Z,22.38
2022-11-24T00:08:29.204Z,26.67
2022-11-24T00:10:55.993Z,21.25
2022-11-24T00:13:22.880Z,23.77
2022-11-24T00:15:49.702Z,24.85
2022-11-24T00:18:16.601Z,23.02
2022-11-24T00:20:43.421Z,21.58
2022-11-24T00:23:10.401Z,18.10
2022-11-24T00:25:37.232Z,22.27
2022-11-24T00:28:04.196Z,24.27
2022-11-24T00:30:31.201Z,17.63
2022-11-24T00:32:58.080Z,16.05
2022-11-24T00:35:24.874Z,26.58
2022-11-24T00:37:53.695Z,30.88
2022-11-24T00:40:20.544Z,26.20
2022-11-24T00:42:47.420Z,30.25
2022-11-24T00:45:14.469Z,19.02
2022-11-24T00:47:41.331Z,20.75
2022-11-24T00:50:08.600Z,25.92
2022-11-24T00:52:35.543Z,22.77
2022-11-24T00:55:02.333Z,28.10
2022-11-24T00:57:29.152Z,23.17
2022-11-24T00:59:55.958Z,26.52
2022-11-24T01:02:22.822Z,29.20
2022-11-24T01:04:49.616Z,28.92
2022-11-24T01:07:16.550Z,19.38
2022-11-24T01:09:45.566Z,28.33
2022-11-24T01:12:12.465Z,19.85
2022-11-24T01:14:39.333Z,22.65
2022-11-24T01:17:06.190Z,27.42
2022-11-24T01:19:33.116Z,22.30
2022-11-24T01:22:00.196Z,18.23
2022-11-24T01:24:27.012Z,22.70
2022-11-24T01:26:53.905Z,22.92
2022-11-24T01:29:20.712Z,27.08
2022-11-24T01:31:47.737Z,22.70
2022-11-24T01:34:14.599Z,22.23
2022-11-24T01:36:41.533Z,25.92
2022-11-24T01:39:08.437Z,24.05
2022-11-24T01:41:35.969Z,21.27
2022-11-24T01:44:24.662Z,21.98
2022-11-24T01:47:07.482Z,25.88
2022-11-24T01:49:42.979Z,20.92
2022-11-24T01:54:51.629Z,22.25
2022-11-24T01:57:27.666Z,21.50
2022-11-24T02:00:02.025Z,21.95
2022-11-24T02:02:43.717Z,17.92
2022-11-24T02:05:34.086Z,21.88
2022-11-24T02:08:02.069Z,17.38
2022-11-24T02:10:29.754Z,17.05
2022-11-24T02:12:59.019Z,15.43
2022-11-24T02:15:26.024Z,13.55
2022-11-24T02:17:53.108Z,17.45
2022-11-24T02:20:20.335Z,10.63
2022-11-24T02:22:50.127Z,15.45
2022-11-24T02:25:30.674Z,7.53
2022-11-24T02:28:00.506Z,8.55
2022-11-24T02:30:27.626Z,6.97
2022-11-24T02:32:55.065Z,7.47
2022-11-24T02:35:22.237Z,13.63
2022-11-24T02:37:49.032Z,7.60
2022-11-24T02:40:20.193Z,8.88
2022-11-24T02:42:47.469Z,8.50
2022-11-24T02:45:16.483Z,10.43
2022-11-24T02:47:43.535Z,5.90
2022-11-24T02:50:10.393Z,8.05
2022-11-24T02:52:37.365Z,9.73
2022-11-24T02:55:04.830Z,7.65
2022-11-24T02:57:31.923Z,7.82
2022-11-24T02:59:58.690Z,13.00
2022-11-24T03:02:25.620Z,8.95
2022-11-24T03:04:52.479Z,8.85
2022-11-24T03:07:19.443Z,9.75
2022-11-24T03:09:46.323Z,4.35
2022-11-24T03:12:13.195Z,7.78
2022-11-24T03:14:39.985Z,4.70
2022-11-24T03:17:07.051Z,7.80
2022-11-24T03:19:34.074Z,7.78
2022-11-24T03:22:01.120Z,6.63
2022-11-24T03:24:27.953Z,5.80
2022-11-24T03:26:54.811Z,6.55
2022-11-24T03:29:22.332Z,6.13
2022-11-24T03:31:49.342Z,10.20
2022-11-24T03:34:16.143Z,4.47
2022-11-24T03:36:42.978Z,4.78
2022-11-24T03:39:10.038Z,8.85
2022-11-24T03:41:36.948Z,5.03
2022-11-24T03:44:03.930Z,11.18
2022-11-24T03:46:30.856Z,7.10
2022-11-24T03:48:57.694Z,5.35
2022-11-24T03:51:24.602Z,6.25
2022-11-24T03:53:51.453Z,6.18
2022-11-24T03:56:18.345Z,11.07
2022-11-24T03:58:45.139Z,14.27
2022-11-24T04:01:12.086Z,11.35
2022-11-24T04:03:38.893Z,10.25
2022-11-24T04:06:05.798Z,7.93
2022-11-24T04:08:32.850Z,11.95
2022-11-24T04:10:59.750Z,8.05
2022-11-24T04:13:27.219Z,15.57
2022-11-24T04:15:54.261Z,13.80
2022-11-24T04:18:21.255Z,12.65
2022-11-24T04:20:52.054Z,11.50
2022-11-24T04:23:19.482Z,13.57
2022-11-24T04:25:46.587Z,8.05
2022-11-24T04:28:13.470Z,15.10
2022-11-24T04:30:44.592Z,10.77
2022-11-24T04:33:12.314Z,12.25
2022-11-24T04:35:39.158Z,10.63
2022-11-24T04:38:06.108Z,16.30
2022-11-24T04:40:32.902Z,13.88
2022-11-24T04:42:59.739Z,23.10
2022-11-24T04:45:26.569Z,12.98
2022-11-24T04:47:53.390Z,18.23
2022-11-24T04:50:20.743Z,18.92
2022-11-24T04:52:47.731Z,11.95
2022-11-24T04:55:14.575Z,12.25
2022-11-24T04:57:41.517Z,11.90
2022-11-24T05:00:09.302Z,11.73
2022-11-24T05:02:36.567Z,22.30
2022-11-24T05:05:04.351Z,18.30
2022-11-24T05:07:31.321Z,9.85
2022-11-24T05:10:16.519Z,14.35
2022-11-24T05:12:48.430Z,12.00
2022-11-24T05:15:18.069Z,18.20
2022-11-24T05:17:44.890Z,14.23
2022-11-24T05:20:11.911Z,17.42
2022-11-24T05:22:38.653Z,19.15
2022-11-24T05:25:05.830Z,20.98
2022-11-24T05:27:32.647Z,26.33
2022-11-24T05:29:59.533Z,21.60
2022-11-24T05:32:26.452Z,18.88
2022-11-24T05:34:54.572Z,14.15
2022-11-24T05:37:21.550Z,23.45
2022-11-24T05:39:48.568Z,21.85
2022-11-24T05:42:33.796Z,18.17
2022-11-24T05:45:00.766Z,16.17
2022-11-24T05:47:27.596Z,20.20
2022-11-24T05:49:54.463Z,14.32
2022-11-24T05:52:21.315Z,17.02
2022-11-24T05:54:48.272Z,18.50
2022-11-24T05:57:16.979Z,18.15
2022-11-24T05:59:44.404Z,16.50
2022-11-24T06:02:11.475Z,23.90
2022-11-24T06:04:39.079Z,23.23
2022-11-24T06:07:09.005Z,20.98
2022-11-24T06:09:37.913Z,16.05
2022-11-24T06:12:08.896Z,17.83
2022-11-24T06:14:36.013Z,15.18
2022-11-24T06:17:03.675Z,21.85
2022-11-24T06:19:30.998Z,24.85
2022-11-24T06:21:57.877Z,20.10
2022-11-24T06:24:24.804Z,22.85
2022-11-24T06:26:51.645Z,17.67
2022-11-24T06:29:18.517Z,16.52
2022-11-24T06:31:45.346Z,18.38
2022-11-24T06:34:13.209Z,17.30
2022-11-24T06:36:40.134Z,22.27
2022-11-24T06:39:07.664Z,20.00
2022-11-24T06:41:34.512Z,20.77
2022-11-24T06:44:03.990Z,24.42
2022-11-24T06:46:31.319Z,19.20
2022-11-24T06:48:59.667Z,21.40
2022-11-24T06:51:27.167Z,20.73
2022-11-24T06:53:54.506Z,26.45
2022-11-24T06:56:22.156Z,32.72
2022-11-24T06:58:51.158Z,20.23
2022-11-24T07:01:24.818Z,24.50
2022-11-24T07:03:53.304Z,26.67
2022-11-24T07:06:21.096Z,29.88
2022-11-24T07:08:48.461Z,21.35
2022-11-24T07:11:18.781Z,25.77
2022-11-24T07:13:46.592Z,16.40
2022-11-24T07:16:21.441Z,24.13
2022-11-24T07:18:51.181Z,27.10
2022-11-24T07:21:19.749Z,22.63
2022-11-24T07:23:50.890Z,22.80
2022-11-24T07:26:18.691Z,23.10
2022-11-24T07:28:45.997Z,19.67
2022-11-24T07:31:16.080Z,18.10
2022-11-24T07:33:42.967Z,17.13
2022-11-24T07:36:10.136Z,19.25
2022-11-24T07:38:37.032Z,19.98
2022-11-24T07:41:09.559Z,21.27
2022-11-24T07:43:37.690Z,23.52
2022-11-24T07:46:06.536Z,24.85
2022-11-24T07:48:34.482Z,20.00
2022-11-24T07:51:05.223Z,18.55
2022-11-24T07:53:32.933Z,29.35
2022-11-24T07:56:01.458Z,29.33
2022-11-24T07:58:32.575Z,28.60
2022-11-24T08:01:00.821Z,12.00
2022-11-24T08:03:28.160Z,17.50
2022-11-24T08:06:22.427Z,22.52
2022-11-24T08:08:43.056Z,22.15
2022-11-24T08:11:12.365Z,23.42
2022-11-24T08:13:39.848Z,21.77
2022-11-24T08:16:15.359Z,28.80
2022-11-24T08:18:43.748Z,19.33
2022-11-24T08:21:14.723Z,21.88
2022-11-24T08:23:42.397Z,26.17
2022-11-24T08:26:14.160Z,32.63
2022-11-24T08:28:41.341Z,24.88
2022-11-24T08:31:14.066Z,26.80
2022-11-24T08:33:41.839Z,15.32
2022-11-24T08:36:11.373Z,24.55
2022-11-24T08:38:38.480Z,23.05
2022-11-24T08:41:14.290Z,19.90
2022-11-24T08:43:41.711Z,13.48
2022-11-24T08:46:16.963Z,21.15
2022-11-24T08:48:52.602Z,20.70
2022-11-24T08:53:48.373Z,25.60
2022-11-24T08:56:15.266Z,22.38
2022-11-24T08:58:42.648Z,22.83
2022-11-24T09:01:13.158Z,21.02
2022-11-24T09:03:45.018Z,20.27
2022-11-24T09:06:16.081Z,20.90
2022-11-24T09:08:43.157Z,29.77
2022-11-24T09:11:12.745Z,18.98
2022-11-24T09:13:40.525Z,18.13
2022-11-24T09:16:10.212Z,21.55
2022-11-24T09:18:37.335Z,23.55
2022-11-24T09:21:15.755Z,22.83
2022-11-24T09:23:43.654Z,24.70
2022-11-24T09:26:13.572Z,22.25
2022-11-24T09:28:41.464Z,18.67
2022-11-24T09:31:11.361Z,24.02
2022-11-24T09:33:39.533Z,24.27
2022-11-24T09:36:06.989Z,19.50
2022-11-24T09:38:34.333Z,22.77
2022-11-24T09:41:23.161Z,19.80
2022-11-24T09:44:08.875Z,19.65
2022-11-24T09:46:41.737Z,21.73
2022-11-24T09:49:16.571Z,18.00
2022-11-24T09:51:47.890Z,15.63
2022-11-24T09:54:22.015Z,22.17
2022-11-24T09:56:51.226Z,16.15
2022-11-24T09:59:23.503Z,27.48
2022-11-24T10:01:51.445Z,22.35
2022-11-24T10:04:32.228Z,19.77
2022-11-24T10:07:20.448Z,18.33
2022-11-24T10:09:56.309Z,19.23
2022-11-24T10:12:30.495Z,21.00
2022-11-24T10:15:12.377Z,26.85
2022-11-24T10:18:01.083Z,25.15
2022-11-24T10:20:31.150Z,26.35
2022-11-24T10:23:39.782Z,18.00
2022-11-24T10:26:18.468Z,29.30
2022-11-24T10:28:53.110Z,21.30
2022-11-24T10:31:36.146Z,21.33
2022-11-24T10:34:29.527Z,22.95
2022-11-24T10:37:11.399Z,15.15
2022-11-24T10:40:01.040Z,17.95
2022-11-24T10:42:40.104Z,18.02
2022-11-24T10:45:16.581Z,26.85
2022-11-24T10:47:44.582Z,22.17
2022-11-24T10:50:27.798Z,22.55
2022-11-24T10:53:16.105Z,16.23
2022-11-24T10:55:55.428Z,28.13
2022-11-24T10:58:37.701Z,21.17
2022-11-24T11:01:14.520Z,22.80
2022-11-24T11:03:53.377Z,17.70
2022-11-24T11:06:29.027Z,21.85
2022-11-24T11:09:08.153Z,28.48
2022-11-24T11:11:36.418Z,24.55
2022-11-24T11:14:05.405Z,20.25
2022-11-24T11:16:52.789Z,21.25
2022-11-24T11:19:51.400Z,28.92
2022-11-24T11:22:36.874Z,23.65
2022-11-24T11:25:09.518Z,16.45
2022-11-24T11:27:38.173Z,21.08
2022-11-24T11:39:32.013Z,29.58
2022-11-24T11:42:37.836Z,26.95
2022-11-24T11:45:21.187Z,20.10
2022-11-24T11:47:53.722Z,21.00
2022-11-24T11:51:14.806Z,17.50
2022-11-24T11:53:48.319Z,22.33
2022-11-24T11:56:25.828Z,33.95
2022-11-24T11:59:13.918Z,19.60
2022-11-24T12:01:56.256Z,22.38
2022-11-24T12:04:45.107Z,27.13
2022-11-24T12:07:50.648Z,22.75
2022-11-24T12:10:27.258Z,27.40
2022-11-24T12:13:08.976Z,20.38
2022-11-24T12:15:45.030Z,22.95
2022-11-24T12:18:40.193Z,21.80
2022-11-24T12:21:21.521Z,27.67
2022-11-24T12:24:05.026Z,19.85
2022-11-24T12:26:39.992Z,29.60
2022-11-24T12:29:26.062Z,20.52
2022-11-24T12:34:50.389Z,23.25
2022-11-24T12:37:34.793Z,21.90
2022-11-24T12:40:19.880Z,20.20
2022-11-24T12:42:56.144Z,19.53
2022-11-24T12:45:49.712Z,24.42
2022-11-24T12:48:36.468Z,22.73
2022-11-24T12:51:06.489Z,23.27
2022-11-24T12:53:34.905Z,16.88
2022-11-24T12:56:09.529Z,23.73
2022-11-24T12:58:52.018Z,25.40
2022-11-24T13:01:21.927Z,24.25
2022-11-24T13:03:48.786Z,25.80
2022-11-24T13:06:18.098Z,30.63
2022-11-24T13:08:45.513Z,19.92
2022-11-24T13:11:38.751Z,28.00
2022-11-24T13:14:19.017Z,30.75
2022-11-24T13:19:49.564Z,22.35
2022-11-24T13:22:24.123Z,27.10
2022-11-24T13:25:13.964Z,23.33
2022-11-24T13:27:44.251Z,25.50
2022-11-24T13:30:32.969Z,22.80
2022-11-24T13:33:27.566Z,24.80
2022-11-24T13:36:04.071Z,21.63
2022-11-24T13:38:41.759Z,26.15
2022-11-24T13:41:27.650Z,22.92
2022-11-24T13:44:13.662Z,27.75
2022-11-24T13:47:06.803Z,20.05
2022-11-24T13:49:42.474Z,23.65
2022-11-24T13:52:37.339Z,23.25
2022-11-24T13:55:21.560Z,18.08
2022-11-24T13:57:51.954Z,33.40
2022-11-24T14:00:20.307Z,24.02
2022-11-24T14:02:47.797Z,33.90
2022-11-24T14:05:21.810Z,32.05
2022-11-24T14:07:51.248Z,21.88
2022-11-24T14:10:31.066Z,24.75
2022-11-24T14:13:36.731Z,27.70
2022-11-24T14:16:09.586Z,26.33
2022-11-24T14:18:38.599Z,27.95
2022-11-24T14:21:28.375Z,32.15
2022-11-24T14:24:01.422Z,32.80
2022-11-24T14:26:37.227Z,21.92
2022-11-24T14:29:24.306Z,22.08
2022-11-24T14:31:56.615Z,29.45
2022-11-24T14:34:26.383Z,26.77
2022-11-24T14:36:54.807Z,34.35
2022-11-24T14:39:24.258Z,27.17
2022-11-24T14:41:58.479Z,32.97
2022-11-24T14:44:56.531Z,32.03
2022-11-24T14:47:44.019Z,24.35
2022-11-24T14:50:17.327Z,27.92
2022-11-24T14:52:55.557Z,27.67
2022-11-24T14:55:30.843Z,21.52
2022-11-24T14:57:58.786Z,15.88
2022-11-24T15:00:29.707Z,23.73
2022-11-24T15:03:16.061Z,24.02
2022-11-24T15:05:55.451Z,27.85
2022-11-24T15:08:24.484Z,22.77
2022-11-24T15:10:58.350Z,27.50
2022-11-24T15:13:25.956Z,23.40
2022-11-24T15:16:03.599Z,32.78
2022-11-24T15:18:43.385Z,21.60
2022-11-24T15:21:18.561Z,23.10
2022-11-24T15:24:16.339Z,23.17
2022-11-24T15:26:44.535Z,26.05
2022-11-24T15:29:12.485Z,24.65
2022-11-24T15:31:40.908Z,24.23
2022-11-24T15:34:12.615Z,24.15
2022-11-24T15:36:39.475Z,29.23
2022-11-24T15:39:06.354Z,28.27
2022-11-24T15:41:33.815Z,30.63
2022-11-24T15:44:00.762Z,33.15
2022-11-24T15:46:29.357Z,28.63
2022-11-24T15:48:57.172Z,28.92
2022-11-24T15:51:26.210Z,30.48
2022-11-24T15:54:00.343Z,30.67
2022-11-24T15:56:33.941Z,33.78
2022-11-24T15:59:01.859Z,24.73
2022-11-24T16:01:33.606Z,29.27
2022-11-24T16:04:01.593Z,28.58
2022-11-24T16:06:28.592Z,24.58
2022-11-24T16:08:55.915Z,17.88
2022-11-24T16:11:23.254Z,30.10
2022-11-24T16:13:53.257Z,30.95
2022-11-24T16:16:21.194Z,23.83
2022-11-24T16:18:48.312Z,31.00
2022-11-24T16:21:15.275Z,26.55
2022-11-24T16:23:42.252Z,25.13
2022-11-24T16:26:10.305Z,28.85
2022-11-24T16:28:37.094Z,29.05
2022-11-24T16:31:04.231Z,26.63
2022-11-24T16:33:32.879Z,31.25
2022-11-24T16:36:02.418Z,38.30
2022-11-24T16:38:29.204Z,24.83
2022-11-24T16:40:56.916Z,32.10
2022-11-24T16:43:24.597Z,36.70
2022-11-24T16:46:06.430Z,23.90
2022-11-24T16:48:36.694Z,22.90
2022-11-24T16:51:08.496Z,31.65
2022-11-24T16:53:35.656Z,32.00
2022-11-24T16:56:02.794Z,28.35
2022-11-24T16:58:29.957Z,31.00
2022-11-24T17:01:06.852Z,22.70
2022-11-24T17:03:37.381Z,23.58
2022-11-24T17:06:06.437Z,27.40
2022-11-24T17:08:38.372Z,20.92
2022-11-24T17:11:12.876Z,26.58
2022-11-24T17:13:40.631Z,34.17
2022-11-24T17:16:10.409Z,27.30
2022-11-24T17:18:38.492Z,36.25
2022-11-24T17:21:09.768Z,28.08
2022-11-24T17:23:37.284Z,24.98
2022-11-24T17:26:06.562Z,30.30
2022-11-24T17:28:34.691Z,27.20
2022-11-24T17:31:24.712Z,27.20
2022-11-24T17:33:54.609Z,26.85
2022-11-24T17:36:21.789Z,28.52
2022-11-24T17:38:49.570Z,23.90
2022-11-24T17:41:17.583Z,27.70
2022-11-24T17:43:48.069Z,22.33
2022-11-24T17:46:14.941Z,26.73
2022-11-24T17:48:42.038Z,28.63
2022-11-24T17:51:15.161Z,21.83
2022-11-24T17:53:43.743Z,18.27
2022-11-24T17:56:19.238Z,20.92
2022-11-24T17:58:46.204Z,28.95
2022-11-24T18:01:13.755Z,14.18
2022-11-24T18:03:41.445Z,22.77
2022-11-24T18:06:10.649Z,26.77
2022-11-24T18:08:38.884Z,23.90
2022-11-24T18:11:12.427Z,25.92
2022-11-24T18:13:56.452Z,33.63
2022-11-24T18:16:29.895Z,25.30
2022-11-24T18:19:14.607Z,24.60
2022-11-24T18:21:43.745Z,18.92
2022-11-24T18:24:11.962Z,25.33
2022-11-24T18:26:40.320Z,19.95
2022-11-24T18:29:07.965Z,20.88
2022-11-24T18:31:35.944Z,22.45
2022-11-24T18:34:04.452Z,25.48
2022-11-24T18:36:32.167Z,21.58
2022-11-24T18:39:04.345Z,24.65
2022-11-24T18:41:31.923Z,24.98
2022-11-24T18:44:02.319Z,20.13
2022-11-24T18:46:29.372Z,27.70
2022-11-24T18:48:56.189Z,21.23
2022-11-24T18:51:23.556Z,25.90
2022-11-24T18:53:54.484Z,21.00
2022-11-24T18:56:21.704Z,21.88
2022-11-24T18:58:51.991Z,25.60
2022-11-24T19:01:21.950Z,20.45
2022-11-24T19:03:51.483Z,28.85
2022-11-24T19:06:19.896Z,18.55
2022-11-24T19:08:47.347Z,24.10
2022-11-24T19:11:23.029Z,28.35
2022-11-24T19:13:50.812Z,21.00
2022-11-24T19:16:19.746Z,26.30
2022-11-24T19:18:53.115Z,30.10
2022-11-24T19:21:20.728Z,29.05
2022-11-24T19:23:47.565Z,24.27
2022-11-24T19:26:15.658Z,22.80
2022-11-24T19:28:42.453Z,28.63
2022-11-24T19:31:12.636Z,28.27
2022-11-24T19:33:39.993Z,26.63
2022-11-24T19:36:14.748Z,28.98
2022-11-24T19:38:43.182Z,20.83
2022-11-24T19:41:14.060Z,28.77
2022-11-24T19:43:41.899Z,24.60
2022-11-24T19:46:14.611Z,24.95
2022-11-24T19:48:47.263Z,22.05
2022-11-24T19:51:18.852Z,27.00
2022-11-24T19:53:46.174Z,21.25
2022-11-24T19:56:16.603Z,26.42
2022-11-24T19:58:43.575Z,36.63
2022-11-24T20:01:14.499Z,24.08
2022-11-24T20:03:43.006Z,21.52
2022-11-24T20:06:12.024Z,24.20
2022-11-24T20:08:39.874Z,23.38
2022-11-24T20:11:09.780Z,20.45
2022-11-24T20:13:38.461Z,27.08
2022-11-24T20:16:16.567Z,23.58
2022-11-24T20:18:45.248Z,29.33
2022-11-24T20:21:15.100Z,29.17
2022-11-24T20:23:43.047Z,28.52
2022-11-24T20:26:15.540Z,23.92
2022-11-24T20:28:43.157Z,23.30
2022-11-24T20:31:19.645Z,26.23
2022-11-24T20:33:47.250Z,23.27
2022-11-24T20:36:16.884Z,29.98
2022-11-24T20:38:44.271Z,22.00
2022-11-24T20:41:12.644Z,27.45
2022-11-24T20:43:40.349Z,19.67
2022-11-24T20:46:10.195Z,22.23
2022-11-24T20:48:37.792Z,24.50
2022-11-24T20:51:08.618Z,29.38
2022-11-24T20:53:36.116Z,35.00
2022-11-24T20:56:06.389Z,28.23
2022-11-24T20:58:35.415Z,25.35
2022-11-24T21:01:13.065Z,32.33
2022-11-24T21:03:43.339Z,27.80
2022-11-24T21:06:11.808Z,37.40
2022-11-24T21:08:40.315Z,28.23
2022-11-24T21:11:08.573Z,26.05
2022-11-24T21:13:37.363Z,27.80
2022-11-24T21:16:26.204Z,32.08
2022-11-24T21:18:56.355Z,37.50
2022-11-24T21:21:24.912Z,38.30
2022-11-24T21:23:52.143Z,26.63
2022-11-24T21:26:19.373Z,26.45
2022-11-24T21:28:47.461Z,32.13
2022-11-24T21:31:20.429Z,32.38
2022-11-24T21:33:49.407Z,25.67
2022-11-24T21:36:19.003Z,27.25
2022-11-24T21:38:54.433Z,24.13
2022-11-24T21:43:49.887Z,33.38
2022-11-24T21:46:17.599Z,29.55
2022-11-24T21:48:44.682Z,30.83
2022-11-24T21:51:17.080Z,33.92
2022-11-24T21:53:44.972Z,29.58
2022-11-24T21:56:17.046Z,30.98
2022-11-24T21:58:49.178Z,27.50
2022-11-24T22:01:17.730Z,32.28
2022-11-24T22:03:45.652Z,34.35
2022-11-24T22:06:13.127Z,30.85
2022-11-24T22:08:39.939Z,42.00
2022-11-24T22:11:11.310Z,27.85
2022-11-24T22:13:38.481Z,35.95
2022-11-24T22:16:06.600Z,30.92
2022-11-24T22:18:35.339Z,36.60
2022-11-24T22:21:05.112Z,37.75
2022-11-24T22:23:33.435Z,38.17
2022-11-24T22:26:23.175Z,32.75
2022-11-24T22:28:50.871Z,32.25
2022-11-24T22:31:20.439Z,29.13
2022-11-24T22:33:48.189Z,27.52
2022-11-24T22:36:16.650Z,24.83
2022-11-24T22:38:43.842Z,32.00
2022-11-24T22:41:16.013Z,34.53
2022-11-24T22:43:44.366Z,34.63
2022-11-24T22:46:15.078Z,40.53
2022-11-24T22:48:42.908Z,33.92
2022-11-24T22:51:11.894Z,27.40
2022-11-24T22:53:39.155Z,29.17
2022-11-24T22:56:11.190Z,26.42
2022-11-24T22:58:39.523Z,29.70
2022-11-24T23:01:25.097Z,30.58
2022-11-24T23:03:54.346Z,33.05
2022-11-24T23:06:23.965Z,31.58
2022-11-24T23:08:51.717Z,26.42
2022-11-24T23:11:30.722Z,23.27
2022-11-24T23:14:02.665Z,33.63
2022-11-24T23:16:29.874Z,19.60
2022-11-24T23:18:57.030Z,21.15
2022-11-24T23:21:29.050Z,24.00
2022-11-24T23:23:56.674Z,18.30
2022-11-24T23:26:26.523Z,13.88
2022-11-24T23:28:53.907Z,9.13
2022-11-24T23:31:24.335Z,11.10
2022-11-24T23:33:51.332Z,14.40
2022-11-24T23:36:20.174Z,10.70
2022-11-24T23:38:48.354Z,12.20
2022-11-24T23:41:17.665Z,10.95
2022-11-24T23:43:44.551Z,15.48
2022-11-24T23:46:13.923Z,16.48
2022-11-24T23:48:41.075Z,12.23
2022-11-24T23:51:11.726Z,12.05
2022-11-24T23:53:39.167Z,11.73
2022-11-24T23:56:06.435Z,15.77
2022-11-24T23:58:33.727Z,10.30
